sensor_id;sensor_type;location;lat;lon;timestamp;P1;durP1;ratioP1;P2;durP2;ratioP2
71637;SDS011;59485;43.542;-5.676;2022-10-30T00:00:55;5.03;;;1.45;;
71637;SDS011;59485;43.542;-5.676;2022-10-30T00:03:20;4.17;;;1.03;;
71637;SDS011;59485;43.542;-5.676;2022-10-30T00:05:47;3.93;;;0.97;;
71637;SDS011;59485;43.542;-5.676;2022-10-30T00:08:16;4.00;;;1.17;;
71637;SDS011;59485;43.542;-5.676;2022-10-30T00:10:43;2.95;;;0.63;;
71637;SDS011;59485;43.542;-5.676;2022-10-30T00:15:51;3.50;;;0.77;;
71637;SDS011;59485;43.542;-5.676;2022-10-30T00:26:21;4.03;;;0.82;;
71637;SDS011;59485;43.542;-5.676;2022-10-30T00:28:54;3.10;;;1.00;;
71637;SDS011;59485;43.542;-5.676;2022-10-30T00:31:20;2.83;;;0.60;;
71637;SDS011;59485;43.542;-5.676;2022-10-30T00:33:49;2.95;;;0.68;;
71637;SDS011;59485;43.542;-5.676;2022-10-30T00:36:16;3.30;;;1.05;;
71637;SDS011;59485;43.542;-5.676;2022-10-30T00:38:42;3.73;;;1.10;;
71637;SDS011;59485;43.542;-5.676;2022-10-30T00:41:18;4.13;;;0.70;;
71637;SDS011;59485;43.542;-5.676;2022-10-30T00:46:29;3.15;;;0.40;;
71637;SDS011;59485;43.542;-5.676;2022-10-30T00:54:07;2.93;;;0.40;;
71637;SDS011;59485;43.542;-5.676;2022-10-30T01:09:28;3.25;;;0.60;;
71637;SDS011;59485;43.542;-5.676;2022-10-30T01:11:53;3.78;;;0.73;;
71637;SDS011;59485;43.542;-5.676;2022-10-30T01:17:08;2.38;;;0.68;;
71637;SDS011;59485;43.542;-5.676;2022-10-30T01:25:37;3.40;;;0.60;;
71637;SDS011;59485;43.542;-5.676;2022-10-30T01:28:21;5.87;;;1.20;;
71637;SDS011;59485;43.542;-5.676;2022-10-30T01:39:20;7.13;;;2.25;;
71637;SDS011;59485;43.542;-5.676;2022-10-30T01:41:48;7.27;;;1.77;;
71637;SDS011;59485;43.542;-5.676;2022-10-30T01:44:18;5.13;;;1.60;;
71637;SDS011;59485;43.542;-5.676;2022-10-30T01:47:21;5.22;;;2.15;;
71637;SDS011;59485;43.542;-5.676;2022-10-30T01:57:54;4.78;;;1.60;;
71637;SDS011;59485;43.542;-5.676;2022-10-30T02:02:53;7.25;;;2.40;;
71637;SDS011;59485;43.542;-5.676;2022-10-30T02:05:32;6.70;;;2.33;;
71637;SDS011;59485;43.542;-5.676;2022-10-30T02:08:03;5.90;;;2.42;;
71637;SDS011;59485;43.542;-5.676;2022-10-30T02:10:29;6.33;;;2.40;;
71637;SDS011;59485;43.542;-5.676;2022-10-30T02:12:55;8.57;;;2.72;;
71637;SDS011;59485;43.542;-5.676;2022-10-30T02:15:21;5.97;;;2.85;;
71637;SDS011;59485;43.542;-5.676;2022-10-30T02:17:47;5.93;;;2.70;;
71637;SDS011;59485;43.542;-5.676;2022-10-30T02:20:18;7.10;;;2.67;;
71637;SDS011;59485;43.542;-5.676;2022-10-30T02:22:45;6.77;;;2.33;;
71637;SDS011;59485;43.542;-5.676;2022-10-30T02:25:11;6.43;;;3.10;;
71637;SDS011;59485;43.542;-5.676;2022-10-30T02:27:37;6.35;;;3.03;;
71637;SDS011;59485;43.542;-5.676;2022-10-30T02:30:03;7.82;;;3.35;;
71637;SDS011;59485;43.542;-5.676;2022-10-30T02:32:29;7.60;;;3.47;;
71637;SDS011;59485;43.542;-5.676;2022-10-30T02:34:54;11.35;;;3.22;;
71637;SDS011;59485;43.542;-5.676;2022-10-30T02:37:20;12.70;;;3.67;;
71637;SDS011;59485;43.542;-5.676;2022-10-30T02:39:45;9.23;;;4.03;;
71637;SDS011;59485;43.542;-5.676;2022-10-30T02:42:11;11.60;;;4.13;;
71637;SDS011;59485;43.542;-5.676;2022-10-30T02:47:04;9.52;;;3.90;;
71637;SDS011;59485;43.542;-5.676;2022-10-30T02:49:31;8.73;;;3.85;;
71637;SDS011;59485;43.542;-5.676;2022-10-30T02:51:56;9.27;;;4.20;;
71637;SDS011;59485;43.542;-5.676;2022-10-30T02:54:22;11.23;;;4.23;;
71637;SDS011;59485;43.542;-5.676;2022-10-30T02:56:47;11.52;;;4.50;;
71637;SDS011;59485;43.542;-5.676;2022-10-30T02:59:13;9.97;;;4.53;;
71637;SDS011;59485;43.542;-5.676;2022-10-30T03:01:38;10.33;;;4.93;;
71637;SDS011;59485;43.542;-5.676;2022-10-30T03:04:04;10.80;;;4.43;;
71637;SDS011;59485;43.542;-5.676;2022-10-30T03:06:29;9.70;;;4.17;;
71637;SDS011;59485;43.542;-5.676;2022-10-30T03:08:55;7.13;;;3.67;;
71637;SDS011;59485;43.542;-5.676;2022-10-30T03:11:20;8.68;;;3.50;;
71637;SDS011;59485;43.542;-5.676;2022-10-30T03:13:46;5.80;;;3.17;;
71637;SDS011;59485;43.542;-5.676;2022-10-30T03:16:13;7.03;;;3.28;;
71637;SDS011;59485;43.542;-5.676;2022-10-30T03:18:46;8.10;;;2.75;;
71637;SDS011;59485;43.542;-5.676;2022-10-30T03:21:13;9.43;;;3.33;;
71637;SDS011;59485;43.542;-5.676;2022-10-30T03:23:40;11.02;;;3.22;;
71637;SDS011;59485;43.542;-5.676;2022-10-30T03:26:06;7.22;;;3.42;;
71637;SDS011;59485;43.542;-5.676;2022-10-30T03:28:32;8.67;;;3.80;;
71637;SDS011;59485;43.542;-5.676;2022-10-30T03:30:59;7.60;;;2.83;;
71637;SDS011;59485;43.542;-5.676;2022-10-30T03:33:34;9.45;;;3.13;;
71637;SDS011;59485;43.542;-5.676;2022-10-30T03:36:00;9.80;;;3.80;;
71637;SDS011;59485;43.542;-5.676;2022-10-30T03:38:28;8.85;;;2.95;;
71637;SDS011;59485;43.542;-5.676;2022-10-30T03:40:54;6.63;;;3.73;;
71637;SDS011;59485;43.542;-5.676;2022-10-30T03:43:19;7.07;;;3.50;;
71637;SDS011;59485;43.542;-5.676;2022-10-30T03:45:46;6.20;;;2.78;;
71637;SDS011;59485;43.542;-5.676;2022-10-30T03:48:16;6.03;;;2.70;;
71637;SDS011;59485;43.542;-5.676;2022-10-30T03:53:14;5.80;;;2.90;;
71637;SDS011;59485;43.542;-5.676;2022-10-30T03:55:39;8.57;;;3.40;;
71637;SDS011;59485;43.542;-5.676;2022-10-30T03:58:05;7.68;;;3.17;;
71637;SDS011;59485;43.542;-5.676;2022-10-30T04:00:32;9.87;;;3.87;;
71637;SDS011;59485;43.542;-5.676;2022-10-30T04:02:58;6.45;;;2.88;;
71637;SDS011;59485;43.542;-5.676;2022-10-30T04:05:27;8.88;;;3.70;;
71637;SDS011;59485;43.542;-5.676;2022-10-30T04:10:21;5.50;;;2.70;;
71637;SDS011;59485;43.542;-5.676;2022-10-30T04:12:47;7.83;;;2.80;;
71637;SDS011;59485;43.542;-5.676;2022-10-30T04:15:12;6.45;;;2.90;;
71637;SDS011;59485;43.542;-5.676;2022-10-30T04:20:03;7.60;;;2.55;;
71637;SDS011;59485;43.542;-5.676;2022-10-30T04:22:29;5.93;;;2.70;;
71637;SDS011;59485;43.542;-5.676;2022-10-30T04:24:54;6.37;;;2.57;;
71637;SDS011;59485;43.542;-5.676;2022-10-30T04:27:20;6.87;;;3.10;;
71637;SDS011;59485;43.542;-5.676;2022-10-30T04:29:45;5.78;;;3.35;;
71637;SDS011;59485;43.542;-5.676;2022-10-30T04:32:11;7.23;;;2.73;;
71637;SDS011;59485;43.542;-5.676;2022-10-30T04:34:37;7.32;;;3.25;;
71637;SDS011;59485;43.542;-5.676;2022-10-30T04:37:06;5.77;;;2.80;;
71637;SDS011;59485;43.542;-5.676;2022-10-30T04:39:32;6.25;;;2.63;;
71637;SDS011;59485;43.542;-5.676;2022-10-30T04:41:58;8.60;;;4.03;;
71637;SDS011;59485;43.542;-5.676;2022-10-30T04:44:23;7.90;;;3.93;;
71637;SDS011;59485;43.542;-5.676;2022-10-30T04:46:49;8.27;;;4.03;;
71637;SDS011;59485;43.542;-5.676;2022-10-30T04:49:14;6.63;;;2.83;;
71637;SDS011;59485;43.542;-5.676;2022-10-30T04:51:40;6.13;;;3.10;;
71637;SDS011;59485;43.542;-5.676;2022-10-30T04:54:05;7.20;;;3.13;;
71637;SDS011;59485;43.542;-5.676;2022-10-30T04:56:31;6.67;;;3.03;;
71637;SDS011;59485;43.542;-5.676;2022-10-30T04:59:06;12.63;;;3.10;;
71637;SDS011;59485;43.542;-5.676;2022-10-30T05:01:31;8.60;;;3.75;;
71637;SDS011;59485;43.542;-5.676;2022-10-30T05:06:26;6.43;;;4.07;;
71637;SDS011;59485;43.542;-5.676;2022-10-30T05:11:19;13.25;;;6.32;;
71637;SDS011;59485;43.542;-5.676;2022-10-30T05:13:45;14.40;;;7.67;;
71637;SDS011;59485;43.542;-5.676;2022-10-30T05:16:10;13.02;;;6.40;;
71637;SDS011;59485;43.542;-5.676;2022-10-30T05:18:36;13.10;;;6.40;;
71637;SDS011;59485;43.542;-5.676;2022-10-30T05:21:01;11.57;;;5.77;;
71637;SDS011;59485;43.542;-5.676;2022-10-30T05:23:27;9.10;;;4.68;;
71637;SDS011;59485;43.542;-5.676;2022-10-30T05:28:28;7.82;;;4.00;;
71637;SDS011;59485;43.542;-5.676;2022-10-30T05:33:23;8.05;;;4.18;;
71637;SDS011;59485;43.542;-5.676;2022-10-30T05:38:14;8.05;;;4.53;;
71637;SDS011;59485;43.542;-5.676;2022-10-30T05:40:39;11.23;;;4.27;;
71637;SDS011;59485;43.542;-5.676;2022-10-30T05:43:05;12.93;;;4.10;;
71637;SDS011;59485;43.542;-5.676;2022-10-30T05:45:30;9.07;;;4.63;;
71637;SDS011;59485;43.542;-5.676;2022-10-30T05:47:57;8.20;;;3.83;;
71637;SDS011;59485;43.542;-5.676;2022-10-30T05:50:24;10.33;;;4.73;;
71637;SDS011;59485;43.542;-5.676;2022-10-30T05:52:56;10.23;;;4.00;;
71637;SDS011;59485;43.542;-5.676;2022-10-30T05:55:26;10.05;;;4.70;;
71637;SDS011;59485;43.542;-5.676;2022-10-30T05:57:58;11.88;;;5.50;;
71637;SDS011;59485;43.542;-5.676;2022-10-30T06:00:26;9.50;;;5.65;;
71637;SDS011;59485;43.542;-5.676;2022-10-30T06:03:00;13.27;;;5.43;;
71637;SDS011;59485;43.542;-5.676;2022-10-30T06:05:28;10.57;;;5.20;;
71637;SDS011;59485;43.542;-5.676;2022-10-30T06:07:55;9.13;;;5.05;;
71637;SDS011;59485;43.542;-5.676;2022-10-30T06:10:22;9.48;;;5.30;;
71637;SDS011;59485;43.542;-5.676;2022-10-30T06:13:05;11.07;;;5.23;;
71637;SDS011;59485;43.542;-5.676;2022-10-30T06:15:31;10.20;;;5.80;;
71637;SDS011;59485;43.542;-5.676;2022-10-30T06:17:58;12.07;;;5.93;;
71637;SDS011;59485;43.542;-5.676;2022-10-30T06:20:25;9.57;;;4.97;;
71637;SDS011;59485;43.542;-5.676;2022-10-30T06:23:03;11.05;;;6.05;;
71637;SDS011;59485;43.542;-5.676;2022-10-30T06:25:31;9.80;;;5.20;;
71637;SDS011;59485;43.542;-5.676;2022-10-30T06:27:58;12.35;;;6.05;;
71637;SDS011;59485;43.542;-5.676;2022-10-30T06:30:24;10.70;;;4.85;;
71637;SDS011;59485;43.542;-5.676;2022-10-30T06:32:57;11.88;;;5.53;;
71637;SDS011;59485;43.542;-5.676;2022-10-30T06:35:23;10.63;;;5.57;;
71637;SDS011;59485;43.542;-5.676;2022-10-30T06:37:49;11.77;;;5.68;;
71637;SDS011;59485;43.542;-5.676;2022-10-30T06:40:15;14.85;;;6.88;;
71637;SDS011;59485;43.542;-5.676;2022-10-30T06:42:45;15.48;;;6.80;;
71637;SDS011;59485;43.542;-5.676;2022-10-30T06:45:12;11.00;;;6.45;;
71637;SDS011;59485;43.542;-5.676;2022-10-30T06:47:38;9.33;;;5.20;;
71637;SDS011;59485;43.542;-5.676;2022-10-30T06:50:05;12.70;;;4.90;;
71637;SDS011;59485;43.542;-5.676;2022-10-30T06:52:32;9.10;;;5.30;;
71637;SDS011;59485;43.542;-5.676;2022-10-30T06:54:57;8.97;;;5.27;;
71637;SDS011;59485;43.542;-5.676;2022-10-30T06:57:23;11.03;;;5.67;;
71637;SDS011;59485;43.542;-5.676;2022-10-30T06:59:49;8.65;;;5.32;;
71637;SDS011;59485;43.542;-5.676;2022-10-30T07:02:14;8.93;;;5.93;;
71637;SDS011;59485;43.542;-5.676;2022-10-30T07:04:40;10.18;;;5.47;;
71637;SDS011;59485;43.542;-5.676;2022-10-30T07:07:05;8.40;;;5.10;;
71637;SDS011;59485;43.542;-5.676;2022-10-30T07:09:31;12.03;;;5.60;;
71637;SDS011;59485;43.542;-5.676;2022-10-30T07:11:56;11.23;;;5.60;;
71637;SDS011;59485;43.542;-5.676;2022-10-30T07:14:22;13.93;;;5.93;;
71637;SDS011;59485;43.542;-5.676;2022-10-30T07:16:48;11.43;;;5.95;;
71637;SDS011;59485;43.542;-5.676;2022-10-30T07:19:14;10.97;;;6.03;;
71637;SDS011;59485;43.542;-5.676;2022-10-30T07:21:39;10.75;;;6.15;;
71637;SDS011;59485;43.542;-5.676;2022-10-30T07:24:05;14.80;;;7.37;;
71637;SDS011;59485;43.542;-5.676;2022-10-30T07:26:30;11.18;;;5.93;;
71637;SDS011;59485;43.542;-5.676;2022-10-30T07:31:30;11.25;;;5.75;;
71637;SDS011;59485;43.542;-5.676;2022-10-30T07:33:56;11.27;;;5.97;;
71637;SDS011;59485;43.542;-5.676;2022-10-30T07:36:22;12.63;;;6.82;;
71637;SDS011;59485;43.542;-5.676;2022-10-30T07:38:48;12.20;;;5.47;;
71637;SDS011;59485;43.542;-5.676;2022-10-30T07:41:20;10.50;;;6.28;;
71637;SDS011;59485;43.542;-5.676;2022-10-30T07:43:46;11.77;;;6.22;;
71637;SDS011;59485;43.542;-5.676;2022-10-30T07:46:12;9.77;;;5.43;;
71637;SDS011;59485;43.542;-5.676;2022-10-30T07:48:38;11.88;;;6.15;;
71637;SDS011;59485;43.542;-5.676;2022-10-30T07:51:04;13.10;;;6.05;;
71637;SDS011;59485;43.542;-5.676;2022-10-30T07:53:36;10.60;;;5.50;;
71637;SDS011;59485;43.542;-5.676;2022-10-30T07:58:32;9.77;;;5.40;;
71637;SDS011;59485;43.542;-5.676;2022-10-30T08:01:01;10.38;;;5.45;;
71637;SDS011;59485;43.542;-5.676;2022-10-30T08:03:27;10.27;;;6.33;;
71637;SDS011;59485;43.542;-5.676;2022-10-30T08:05:53;9.23;;;4.82;;
71637;SDS011;59485;43.542;-5.676;2022-10-30T08:08:18;9.30;;;4.93;;
71637;SDS011;59485;43.542;-5.676;2022-10-30T08:10:47;13.02;;;4.85;;
71637;SDS011;59485;43.542;-5.676;2022-10-30T08:15:37;11.65;;;5.63;;
71637;SDS011;59485;43.542;-5.676;2022-10-30T08:18:03;10.25;;;5.82;;
71637;SDS011;59485;43.542;-5.676;2022-10-30T08:20:29;14.10;;;6.60;;
71637;SDS011;59485;43.542;-5.676;2022-10-30T08:22:55;11.43;;;5.57;;
71637;SDS011;59485;43.542;-5.676;2022-10-30T08:25:22;10.70;;;4.80;;
71637;SDS011;59485;43.542;-5.676;2022-10-30T08:27:54;10.77;;;5.50;;
71637;SDS011;59485;43.542;-5.676;2022-10-30T08:32:48;8.90;;;4.90;;
71637;SDS011;59485;43.542;-5.676;2022-10-30T08:35:14;9.70;;;5.30;;
71637;SDS011;59485;43.542;-5.676;2022-10-30T08:37:40;9.35;;;4.80;;
71637;SDS011;59485;43.542;-5.676;2022-10-30T08:40:06;9.63;;;4.63;;
71637;SDS011;59485;43.542;-5.676;2022-10-30T08:42:33;12.43;;;5.07;;
71637;SDS011;59485;43.542;-5.676;2022-10-30T08:44:59;10.90;;;4.60;;
71637;SDS011;59485;43.542;-5.676;2022-10-30T08:47:24;9.30;;;5.00;;
71637;SDS011;59485;43.542;-5.676;2022-10-30T08:49:50;10.20;;;3.93;;
71637;SDS011;59485;43.542;-5.676;2022-10-30T08:52:15;11.27;;;3.95;;
71637;SDS011;59485;43.542;-5.676;2022-10-30T08:54:41;7.60;;;4.07;;
71637;SDS011;59485;43.542;-5.676;2022-10-30T08:57:06;7.57;;;4.40;;
71637;SDS011;59485;43.542;-5.676;2022-10-30T08:59:31;8.23;;;3.80;;
71637;SDS011;59485;43.542;-5.676;2022-10-30T09:01:57;7.70;;;3.73;;
71637;SDS011;59485;43.542;-5.676;2022-10-30T09:06:50;7.38;;;3.97;;
71637;SDS011;59485;43.542;-5.676;2022-10-30T09:09:16;10.27;;;4.53;;
71637;SDS011;59485;43.542;-5.676;2022-10-30T09:11:41;7.50;;;4.20;;
71637;SDS011;59485;43.542;-5.676;2022-10-30T09:14:07;9.20;;;3.80;;
71637;SDS011;59485;43.542;-5.676;2022-10-30T09:16:33;9.07;;;3.90;;
71637;SDS011;59485;43.542;-5.676;2022-10-30T09:18:58;8.80;;;3.10;;
71637;SDS011;59485;43.542;-5.676;2022-10-30T09:21:24;9.40;;;3.88;;
71637;SDS011;59485;43.542;-5.676;2022-10-30T09:23:49;8.47;;;4.27;;
71637;SDS011;59485;43.542;-5.676;2022-10-30T09:26:15;8.50;;;3.90;;
71637;SDS011;59485;43.542;-5.676;2022-10-30T09:28:46;9.07;;;4.32;;
71637;SDS011;59485;43.542;-5.676;2022-10-30T09:31:12;7.33;;;3.77;;
71637;SDS011;59485;43.542;-5.676;2022-10-30T09:33:37;7.43;;;3.70;;
71637;SDS011;59485;43.542;-5.676;2022-10-30T09:36:03;8.40;;;4.13;;
71637;SDS011;59485;43.542;-5.676;2022-10-30T09:41:15;7.53;;;3.58;;
71637;SDS011;59485;43.542;-5.676;2022-10-30T09:44:01;9.70;;;4.00;;
71637;SDS011;59485;43.542;-5.676;2022-10-30T09:55:27;8.63;;;4.32;;
71637;SDS011;59485;43.542;-5.676;2022-10-30T09:58:27;7.07;;;3.83;;
71637;SDS011;59485;43.542;-5.676;2022-10-30T10:04:01;10.07;;;4.55;;
71637;SDS011;59485;43.542;-5.676;2022-10-30T10:06:56;7.97;;;3.63;;
71637;SDS011;59485;43.542;-5.676;2022-10-30T10:09:28;7.60;;;4.03;;
71637;SDS011;59485;43.542;-5.676;2022-10-30T10:12:00;9.17;;;3.87;;
71637;SDS011;59485;43.542;-5.676;2022-10-30T10:14:34;8.48;;;4.13;;
71637;SDS011;59485;43.542;-5.676;2022-10-30T10:17:28;8.43;;;3.60;;
71637;SDS011;59485;43.542;-5.676;2022-10-30T10:20:12;9.98;;;4.13;;
71637;SDS011;59485;43.542;-5.676;2022-10-30T10:22:56;9.77;;;3.92;;
71637;SDS011;59485;43.542;-5.676;2022-10-30T10:25:29;7.87;;;3.83;;
71637;SDS011;59485;43.542;-5.676;2022-10-30T10:36:29;11.75;;;5.45;;
71637;SDS011;59485;43.542;-5.676;2022-10-30T10:39:16;10.63;;;5.90;;
71637;SDS011;59485;43.542;-5.676;2022-10-30T10:50:20;6.05;;;2.20;;
71637;SDS011;59485;43.542;-5.676;2022-10-30T10:52:57;5.83;;;2.00;;
71637;SDS011;59485;43.542;-5.676;2022-10-30T10:55:30;8.55;;;1.77;;
71637;SDS011;59485;43.542;-5.676;2022-10-30T10:58:03;6.00;;;2.08;;
71637;SDS011;59485;43.542;-5.676;2022-10-30T11:00:35;5.80;;;1.98;;
71637;SDS011;59485;43.542;-5.676;2022-10-30T11:08:20;5.97;;;1.88;;
71637;SDS011;59485;43.542;-5.676;2022-10-30T11:10:55;7.43;;;1.80;;
71637;SDS011;59485;43.542;-5.676;2022-10-30T11:13:36;6.63;;;2.08;;
71637;SDS011;59485;43.542;-5.676;2022-10-30T11:19:07;8.65;;;3.15;;
71637;SDS011;59485;43.542;-5.676;2022-10-30T11:21:43;11.17;;;3.40;;
71637;SDS011;59485;43.542;-5.676;2022-10-30T11:26:56;10.00;;;2.47;;
71637;SDS011;59485;43.542;-5.676;2022-10-30T11:29:35;9.35;;;2.45;;
71637;SDS011;59485;43.542;-5.676;2022-10-30T11:32:02;11.75;;;2.60;;
71637;SDS011;59485;43.542;-5.676;2022-10-30T11:34:35;9.23;;;2.40;;
71637;SDS011;59485;43.542;-5.676;2022-10-30T11:37:02;13.73;;;3.13;;
71637;SDS011;59485;43.542;-5.676;2022-10-30T11:39:31;9.95;;;3.00;;
71637;SDS011;59485;43.542;-5.676;2022-10-30T11:44:37;6.78;;;2.33;;
71637;SDS011;59485;43.542;-5.676;2022-10-30T11:47:06;8.87;;;3.20;;
71637;SDS011;59485;43.542;-5.676;2022-10-30T11:52:02;6.88;;;2.30;;
71637;SDS011;59485;43.542;-5.676;2022-10-30T11:54:33;7.40;;;2.33;;
71637;SDS011;59485;43.542;-5.676;2022-10-30T11:57:10;14.98;;;3.25;;
71637;SDS011;59485;43.542;-5.676;2022-10-30T12:00:01;8.43;;;2.87;;
71637;SDS011;59485;43.542;-5.676;2022-10-30T12:02:45;10.88;;;3.53;;
71637;SDS011;59485;43.542;-5.676;2022-10-30T12:10:58;6.32;;;2.33;;
71637;SDS011;59485;43.542;-5.676;2022-10-30T12:13:31;8.07;;;2.10;;
71637;SDS011;59485;43.542;-5.676;2022-10-30T12:18:33;8.10;;;2.33;;
71637;SDS011;59485;43.542;-5.676;2022-10-30T12:20:59;7.53;;;1.70;;
71637;SDS011;59485;43.542;-5.676;2022-10-30T12:23:27;5.93;;;1.97;;
71637;SDS011;59485;43.542;-5.676;2022-10-30T12:31:19;4.78;;;1.58;;
71637;SDS011;59485;43.542;-5.676;2022-10-30T12:36:16;4.90;;;1.55;;
71637;SDS011;59485;43.542;-5.676;2022-10-30T12:41:26;4.70;;;1.23;;
71637;SDS011;59485;43.542;-5.676;2022-10-30T12:46:25;6.78;;;1.10;;
71637;SDS011;59485;43.542;-5.676;2022-10-30T12:57:32;4.45;;;1.05;;
71637;SDS011;59485;43.542;-5.676;2022-10-30T13:00:13;4.88;;;1.02;;
71637;SDS011;59485;43.542;-5.676;2022-10-30T13:05:39;3.95;;;0.73;;
71637;SDS011;59485;43.542;-5.676;2022-10-30T13:08:24;6.43;;;1.35;;
71637;SDS011;59485;43.542;-5.676;2022-10-30T13:13:32;5.32;;;1.13;;
71637;SDS011;59485;43.542;-5.676;2022-10-30T13:15:59;10.53;;;1.53;;
71637;SDS011;59485;43.542;-5.676;2022-10-30T13:18:30;4.75;;;1.10;;
71637;SDS011;59485;43.542;-5.676;2022-10-30T13:23:49;9.90;;;1.95;;
71637;SDS011;59485;43.542;-5.676;2022-10-30T13:26:30;6.82;;;1.85;;
71637;SDS011;59485;43.542;-5.676;2022-10-30T13:29:11;11.87;;;3.97;;
71637;SDS011;59485;43.542;-5.676;2022-10-30T13:31:51;13.50;;;3.03;;
71637;SDS011;59485;43.542;-5.676;2022-10-30T13:43:04;12.53;;;3.37;;
71637;SDS011;59485;43.542;-5.676;2022-10-30T13:56:55;11.03;;;3.93;;
71637;SDS011;59485;43.542;-5.676;2022-10-30T14:02:33;12.05;;;4.47;;
71637;SDS011;59485;43.542;-5.676;2022-10-30T14:05:11;10.63;;;4.30;;
71637;SDS011;59485;43.542;-5.676;2022-10-30T14:20:35;11.63;;;2.85;;
71637;SDS011;59485;43.542;-5.676;2022-10-30T14:23:14;13.23;;;3.80;;
71637;SDS011;59485;43.542;-5.676;2022-10-30T14:28:31;10.70;;;5.10;;
71637;SDS011;59485;43.542;-5.676;2022-10-30T14:33:44;13.10;;;3.28;;
71637;SDS011;59485;43.542;-5.676;2022-10-30T14:44:27;15.35;;;4.20;;
71637;SDS011;59485;43.542;-5.676;2022-10-30T14:47:33;14.63;;;7.03;;
71637;SDS011;59485;43.542;-5.676;2022-10-30T14:58:32;12.80;;;5.25;;
71637;SDS011;59485;43.542;-5.676;2022-10-30T15:03:52;11.93;;;5.15;;
71637;SDS011;59485;43.542;-5.676;2022-10-30T15:14:40;15.05;;;5.20;;
71637;SDS011;59485;43.542;-5.676;2022-10-30T15:17:21;11.50;;;2.75;;
71637;SDS011;59485;43.542;-5.676;2022-10-30T15:20:28;12.60;;;4.75;;
71637;SDS011;59485;43.542;-5.676;2022-10-30T15:22:57;17.13;;;6.47;;
71637;SDS011;59485;43.542;-5.676;2022-10-30T15:25:50;12.70;;;3.72;;
71637;SDS011;59485;43.542;-5.676;2022-10-30T15:28:23;16.08;;;5.30;;
71637;SDS011;59485;43.542;-5.676;2022-10-30T15:34:19;12.77;;;5.90;;
71637;SDS011;59485;43.542;-5.676;2022-10-30T15:36:46;9.83;;;5.10;;
71637;SDS011;59485;43.542;-5.676;2022-10-30T15:39:13;13.63;;;5.25;;
71637;SDS011;59485;43.542;-5.676;2022-10-30T15:41:47;10.35;;;3.13;;
71637;SDS011;59485;43.542;-5.676;2022-10-30T15:44:27;9.67;;;3.43;;
71637;SDS011;59485;43.542;-5.676;2022-10-30T15:47:15;10.23;;;4.05;;
71637;SDS011;59485;43.542;-5.676;2022-10-30T15:49:52;9.35;;;4.20;;
71637;SDS011;59485;43.542;-5.676;2022-10-30T15:52:26;12.20;;;4.32;;
71637;SDS011;59485;43.542;-5.676;2022-10-30T15:55:17;13.80;;;5.55;;
71637;SDS011;59485;43.542;-5.676;2022-10-30T15:57:49;8.33;;;1.57;;
71637;SDS011;59485;43.542;-5.676;2022-10-30T16:00:29;19.85;;;9.95;;
71637;SDS011;59485;43.542;-5.676;2022-10-30T16:05:25;14.07;;;4.95;;
71637;SDS011;59485;43.542;-5.676;2022-10-30T16:07:53;8.38;;;2.22;;
71637;SDS011;59485;43.542;-5.676;2022-10-30T16:10:33;6.57;;;1.33;;
71637;SDS011;59485;43.542;-5.676;2022-10-30T16:12:59;9.43;;;1.40;;
71637;SDS011;59485;43.542;-5.676;2022-10-30T16:15:27;8.60;;;1.40;;
71637;SDS011;59485;43.542;-5.676;2022-10-30T16:20:52;7.57;;;1.58;;
71637;SDS011;59485;43.542;-5.676;2022-10-30T16:23:19;8.27;;;0.93;;
71637;SDS011;59485;43.542;-5.676;2022-10-30T16:25:53;8.00;;;1.70;;
71637;SDS011;59485;43.542;-5.676;2022-10-30T16:28:33;6.55;;;1.55;;
71637;SDS011;59485;43.542;-5.676;2022-10-30T16:31:05;6.55;;;1.40;;
71637;SDS011;59485;43.542;-5.676;2022-10-30T16:33:38;7.78;;;1.50;;
71637;SDS011;59485;43.542;-5.676;2022-10-30T16:36:08;11.43;;;1.23;;
71637;SDS011;59485;43.542;-5.676;2022-10-30T16:38:39;9.23;;;1.50;;
71637;SDS011;59485;43.542;-5.676;2022-10-30T16:41:05;9.20;;;1.25;;
71637;SDS011;59485;43.542;-5.676;2022-10-30T16:46:50;6.97;;;1.85;;
71637;SDS011;59485;43.542;-5.676;2022-10-30T16:49:40;8.07;;;0.87;;
71637;SDS011;59485;43.542;-5.676;2022-10-30T16:52:12;6.32;;;1.35;;
71637;SDS011;59485;43.542;-5.676;2022-10-30T16:55:00;7.82;;;1.40;;
71637;SDS011;59485;43.542;-5.676;2022-10-30T16:57:52;6.75;;;1.50;;
71637;SDS011;59485;43.542;-5.676;2022-10-30T17:02:58;6.73;;;1.13;;
71637;SDS011;59485;43.542;-5.676;2022-10-30T17:05:35;7.45;;;1.45;;
71637;SDS011;59485;43.542;-5.676;2022-10-30T17:11:01;9.50;;;1.83;;
71637;SDS011;59485;43.542;-5.676;2022-10-30T17:18:53;7.22;;;1.33;;
71637;SDS011;59485;43.542;-5.676;2022-10-30T17:21:31;5.18;;;1.42;;
71637;SDS011;59485;43.542;-5.676;2022-10-30T17:24:35;9.35;;;1.50;;
71637;SDS011;59485;43.542;-5.676;2022-10-30T17:27:25;6.63;;;2.08;;
71637;SDS011;59485;43.542;-5.676;2022-10-30T17:30:33;5.40;;;1.27;;
71637;SDS011;59485;43.542;-5.676;2022-10-30T17:35:59;6.60;;;1.80;;
71637;SDS011;59485;43.542;-5.676;2022-10-30T17:38:28;8.30;;;1.65;;
71637;SDS011;59485;43.542;-5.676;2022-10-30T17:40:54;8.43;;;1.67;;
71637;SDS011;59485;43.542;-5.676;2022-10-30T17:43:30;8.93;;;1.37;;
71637;SDS011;59485;43.542;-5.676;2022-10-30T17:45:58;7.57;;;1.30;;
71637;SDS011;59485;43.542;-5.676;2022-10-30T17:48:48;6.78;;;1.30;;
71637;SDS011;59485;43.542;-5.676;2022-10-30T17:51:15;6.22;;;1.90;;
71637;SDS011;59485;43.542;-5.676;2022-10-30T17:54:10;6.93;;;1.90;;
71637;SDS011;59485;43.542;-5.676;2022-10-30T17:56:37;8.23;;;1.50;;
71637;SDS011;59485;43.542;-5.676;2022-10-30T17:59:03;7.85;;;2.03;;
71637;SDS011;59485;43.542;-5.676;2022-10-30T18:01:29;8.20;;;2.00;;
71637;SDS011;59485;43.542;-5.676;2022-10-30T18:03:54;8.53;;;1.57;;
71637;SDS011;59485;43.542;-5.676;2022-10-30T18:06:21;9.52;;;1.92;;
71637;SDS011;59485;43.542;-5.676;2022-10-30T18:08:57;8.00;;;1.10;;
71637;SDS011;59485;43.542;-5.676;2022-10-30T18:11:32;6.30;;;1.20;;
71637;SDS011;59485;43.542;-5.676;2022-10-30T18:13:58;5.37;;;1.13;;
71637;SDS011;59485;43.542;-5.676;2022-10-30T18:16:24;6.40;;;1.25;;
71637;SDS011;59485;43.542;-5.676;2022-10-30T18:18:49;5.72;;;0.82;;
71637;SDS011;59485;43.542;-5.676;2022-10-30T18:21:27;5.88;;;1.20;;
71637;SDS011;59485;43.542;-5.676;2022-10-30T18:29:10;7.05;;;2.08;;
71637;SDS011;59485;43.542;-5.676;2022-10-30T18:34:14;5.93;;;0.80;;
71637;SDS011;59485;43.542;-5.676;2022-10-30T18:39:12;6.57;;;1.05;;
71637;SDS011;59485;43.542;-5.676;2022-10-30T18:41:41;5.38;;;1.35;;
71637;SDS011;59485;43.542;-5.676;2022-10-30T18:44:12;6.80;;;1.30;;
71637;SDS011;59485;43.542;-5.676;2022-10-30T18:46:41;8.30;;;3.35;;
71637;SDS011;59485;43.542;-5.676;2022-10-30T18:49:08;6.73;;;1.30;;
71637;SDS011;59485;43.542;-5.676;2022-10-30T18:51:33;5.95;;;1.45;;
71637;SDS011;59485;43.542;-5.676;2022-10-30T18:53:59;5.50;;;1.57;;
71637;SDS011;59485;43.542;-5.676;2022-10-30T18:56:27;5.95;;;1.80;;
71637;SDS011;59485;43.542;-5.676;2022-10-30T18:58:56;7.32;;;1.52;;
71637;SDS011;59485;43.542;-5.676;2022-10-30T19:01:23;9.87;;;1.63;;
71637;SDS011;59485;43.542;-5.676;2022-10-30T19:03:48;9.60;;;1.20;;
71637;SDS011;59485;43.542;-5.676;2022-10-30T19:06:28;4.70;;;1.50;;
71637;SDS011;59485;43.542;-5.676;2022-10-30T19:08:54;6.82;;;1.20;;
71637;SDS011;59485;43.542;-5.676;2022-10-30T19:11:20;10.27;;;2.03;;
71637;SDS011;59485;43.542;-5.676;2022-10-30T19:16:15;7.13;;;1.60;;
71637;SDS011;59485;43.542;-5.676;2022-10-30T19:18:42;5.43;;;1.60;;
71637;SDS011;59485;43.542;-5.676;2022-10-30T19:21:13;6.72;;;1.60;;
71637;SDS011;59485;43.542;-5.676;2022-10-30T19:23:41;5.43;;;1.48;;
71637;SDS011;59485;43.542;-5.676;2022-10-30T19:26:07;8.47;;;2.07;;
71637;SDS011;59485;43.542;-5.676;2022-10-30T19:28:33;6.03;;;1.38;;
71637;SDS011;59485;43.542;-5.676;2022-10-30T19:30:58;7.03;;;1.57;;
71637;SDS011;59485;43.542;-5.676;2022-10-30T19:33:24;6.53;;;1.10;;
71637;SDS011;59485;43.542;-5.676;2022-10-30T19:35:53;10.57;;;3.50;;